MAR YMAV-YMML
Flight info
| Callsign | MAR |
|---|---|
| Flight time | 0h 11m |
| Altitude | 5000 |
| Route | ML |
| Aircraft | B736/M-SDE2E3FGHIRWXY/LB1 |
Departure
| Time | 2026-04-23 07:58 |
|---|---|
| Airport | Melbourne Avalon International Airport (YMAV) |
Arrival
| Time | 2026-04-23 08:10 |
|---|---|
| Airport | Melbourne Airport (YMML) |
| Time | Latitude | Longitude | Altitude | Speed | Heading |
|---|---|---|---|---|---|
| 2026-04-23 07:36 | -38.02927 | 144.47516 | 35 ft | 0 kts | 187° |
| 2026-04-23 07:48 | -38.02933 | 144.47515 | 32 ft | 4 kts | 189° |
| 2026-04-23 07:48 | -38.02954 | 144.47452 | 35 ft | 13 kts | 277° |
| 2026-04-23 07:48 | -38.02945 | 144.47314 | 33 ft | 17 kts | 229° |
| 2026-04-23 07:48 | -38.03061 | 144.47321 | 35 ft | 17 kts | 181° |
| 2026-04-23 07:49 | -38.03165 | 144.47265 | 34 ft | 16 kts | 220° |
| 2026-04-23 07:49 | -38.03235 | 144.47157 | 33 ft | 16 kts | 234° |
| 2026-04-23 07:49 | -38.03314 | 144.47072 | 34 ft | 15 kts | 204° |
| 2026-04-23 07:49 | -38.03411 | 144.47034 | 33 ft | 14 kts | 188° |
| 2026-04-23 07:50 | -38.03508 | 144.47027 | 35 ft | 14 kts | 186° |
| 2026-04-23 07:50 | -38.03599 | 144.47004 | 34 ft | 13 kts | 193° |
| 2026-04-23 07:50 | -38.03688 | 144.46989 | 34 ft | 13 kts | 184° |
| 2026-04-23 07:50 | -38.03775 | 144.46980 | 34 ft | 12 kts | 187° |
| 2026-04-23 07:51 | -38.03860 | 144.46965 | 34 ft | 12 kts | 188° |
| 2026-04-23 07:51 | -38.03941 | 144.46950 | 33 ft | 12 kts | 188° |
| 2026-04-23 07:51 | -38.04021 | 144.46936 | 35 ft | 11 kts | 187° |
| 2026-04-23 07:51 | -38.04100 | 144.46924 | 35 ft | 11 kts | 188° |
| 2026-04-23 07:52 | -38.04176 | 144.46909 | 34 ft | 11 kts | 188° |
| 2026-04-23 07:52 | -38.04250 | 144.46898 | 34 ft | 11 kts | 187° |
| 2026-04-23 07:52 | -38.04321 | 144.46886 | 34 ft | 10 kts | 187° |
| 2026-04-23 07:52 | -38.04391 | 144.46875 | 35 ft | 10 kts | 187° |
| 2026-04-23 07:53 | -38.04459 | 144.46864 | 35 ft | 10 kts | 187° |
| 2026-04-23 07:53 | -38.04525 | 144.46853 | 34 ft | 9 kts | 187° |
| 2026-04-23 07:53 | -38.04568 | 144.46846 | 34 ft | 9 kts | 187° |
| 2026-04-23 07:53 | -38.04652 | 144.46833 | 34 ft | 9 kts | 188° |
| 2026-04-23 07:54 | -38.04718 | 144.46821 | 33 ft | 10 kts | 188° |
| 2026-04-23 07:54 | -38.04765 | 144.46811 | 35 ft | 10 kts | 191° |
| 2026-04-23 07:54 | -38.04837 | 144.46792 | 34 ft | 11 kts | 187° |
| 2026-04-23 07:54 | -38.04913 | 144.46784 | 34 ft | 11 kts | 184° |
| 2026-04-23 07:55 | -38.05016 | 144.46770 | 36 ft | 11 kts | 188° |
| 2026-04-23 07:55 | -38.05069 | 144.46761 | 34 ft | 12 kts | 188° |
| 2026-04-23 07:55 | -38.05150 | 144.46747 | 36 ft | 12 kts | 187° |
| 2026-04-23 07:55 | -38.05230 | 144.46734 | 35 ft | 12 kts | 187° |
| 2026-04-23 07:56 | -38.05313 | 144.46719 | 35 ft | 12 kts | 188° |
| 2026-04-23 07:56 | -38.05394 | 144.46693 | 33 ft | 12 kts | 206° |
| 2026-04-23 07:56 | -38.05439 | 144.46628 | 34 ft | 0 kts | 249° |
| 2026-04-23 07:57 | -38.05442 | 144.46615 | 35 ft | 4 kts | 256° |
| 2026-04-23 07:57 | -38.05442 | 144.46549 | 35 ft | 10 kts | 277° |
| 2026-04-23 07:58 | -38.05384 | 144.46494 | 34 ft | 15 kts | 9° |
| 2026-04-23 07:58 | -38.05030 | 144.46553 | 35 ft | 91 kts | 7° |
| 2026-04-23 07:58 | -38.04159 | 144.46696 | 59 ft | 155 kts | 6° |
| 2026-04-23 07:58 | -38.03076 | 144.46891 | 793 ft | 152 kts | 8° |
| 2026-04-23 07:59 | -38.02005 | 144.47139 | 1520 ft | 160 kts | 5° |
| 2026-04-23 07:59 | -38.00882 | 144.47491 | 2059 ft | 184 kts | 32° |
| 2026-04-23 07:59 | -37.99917 | 144.48746 | 2404 ft | 214 kts | 46° |
| 2026-04-23 07:59 | -37.98880 | 144.50151 | 3053 ft | 221 kts | 45° |
| 2026-04-23 08:00 | -37.97803 | 144.51567 | 3826 ft | 225 kts | 45° |
| 2026-04-23 08:00 | -37.96704 | 144.52996 | 4559 ft | 227 kts | 45° |
| 2026-04-23 08:00 | -37.95596 | 144.54428 | 4931 ft | 229 kts | 44° |
| 2026-04-23 08:00 | -37.94460 | 144.55886 | 5007 ft | 242 kts | 42° |
| 2026-04-23 08:01 | -37.92932 | 144.56983 | 5015 ft | 266 kts | 9° |
| 2026-04-23 08:01 | -37.91082 | 144.56832 | 5029 ft | 271 kts | 344° |
| 2026-04-23 08:01 | -37.89274 | 144.56150 | 5010 ft | 270 kts | 341° |
| 2026-04-23 08:01 | -37.87482 | 144.55447 | 4998 ft | 269 kts | 342° |
| 2026-04-23 08:02 | -37.85699 | 144.54770 | 4998 ft | 267 kts | 342° |
| 2026-04-23 08:02 | -37.83920 | 144.54120 | 4997 ft | 266 kts | 343° |
| 2026-04-23 08:02 | -37.82142 | 144.53488 | 4996 ft | 264 kts | 343° |
| 2026-04-23 08:02 | -37.80372 | 144.52872 | 5000 ft | 263 kts | 343° |
| 2026-04-23 08:03 | -37.78606 | 144.52264 | 5003 ft | 263 kts | 343° |
| 2026-04-23 08:03 | -37.76840 | 144.51662 | 5011 ft | 263 kts | 343° |
| 2026-04-23 08:03 | -37.75093 | 144.51069 | 5010 ft | 264 kts | 343° |
| 2026-04-23 08:03 | -37.73314 | 144.50466 | 5007 ft | 264 kts | 344° |
| 2026-04-23 08:04 | -37.71557 | 144.49877 | 4989 ft | 258 kts | 346° |
| 2026-04-23 08:04 | -37.69803 | 144.49884 | 4901 ft | 251 kts | 14° |
| 2026-04-23 08:04 | -37.68201 | 144.50634 | 4825 ft | 242 kts | 22° |
| 2026-04-23 08:04 | -37.66691 | 144.51481 | 4712 ft | 233 kts | 23° |
| 2026-04-23 08:05 | -37.65326 | 144.52509 | 4561 ft | 228 kts | 45° |
| 2026-04-23 08:05 | -37.64576 | 144.54222 | 4370 ft | 223 kts | 76° |
| 2026-04-23 08:05 | -37.64463 | 144.56176 | 4143 ft | 225 kts | 93° |
| 2026-04-23 08:05 | -37.64576 | 144.58150 | 3893 ft | 226 kts | 95° |
| 2026-04-23 08:06 | -37.64721 | 144.60124 | 3631 ft | 226 kts | 95° |
| 2026-04-23 08:06 | -37.64858 | 144.62083 | 3404 ft | 221 kts | 95° |
| 2026-04-23 08:06 | -37.64985 | 144.63993 | 3135 ft | 216 kts | 95° |
| 2026-04-23 08:06 | -37.65103 | 144.65863 | 2881 ft | 211 kts | 95° |
| 2026-04-23 08:07 | -37.65214 | 144.67679 | 2639 ft | 204 kts | 94° |
| 2026-04-23 08:07 | -37.65320 | 144.69442 | 2377 ft | 199 kts | 94° |
| 2026-04-23 08:07 | -37.65423 | 144.71158 | 2100 ft | 194 kts | 94° |
| 2026-04-23 08:07 | -37.65521 | 144.72818 | 1861 ft | 184 kts | 94° |
| 2026-04-23 08:08 | -37.65614 | 144.74370 | 1636 ft | 168 kts | 95° |
| 2026-04-23 08:08 | -37.65697 | 144.75763 | 1437 ft | 154 kts | 94° |
| 2026-04-23 08:08 | -37.65777 | 144.77102 | 1227 ft | 152 kts | 95° |
| 2026-04-23 08:08 | -37.65856 | 144.78432 | 1011 ft | 152 kts | 94° |
| 2026-04-23 08:09 | -37.65933 | 144.79750 | 833 ft | 150 kts | 95° |
| 2026-04-23 08:09 | -37.66008 | 144.81040 | 633 ft | 146 kts | 92° |
| 2026-04-23 08:09 | -37.66076 | 144.82276 | 429 ft | 133 kts | 94° |
| 2026-04-23 08:09 | -37.66130 | 144.83286 | 408 ft | 88 kts | 94° |
| 2026-04-23 08:10 | -37.66162 | 144.83784 | 412 ft | 32 kts | 98° |
| 2026-04-23 08:10 | -37.66233 | 144.83877 | 409 ft | 1 kts | 164° |
| 2026-04-23 08:10 | -37.66394 | 144.83911 | 408 ft | 23 kts | 171° |
| 2026-04-23 08:11 | -37.66552 | 144.83940 | 401 ft | 23 kts | 172° |
| 2026-04-23 08:11 | -37.66710 | 144.83968 | 393 ft | 23 kts | 172° |
| 2026-04-23 08:11 | -37.66864 | 144.83996 | 388 ft | 22 kts | 172° |
| 2026-04-23 08:11 | -37.67013 | 144.84025 | 384 ft | 21 kts | 172° |
| 2026-04-23 08:12 | -37.67158 | 144.84051 | 379 ft | 21 kts | 172° |
| 2026-04-23 08:12 | -37.67298 | 144.84076 | 375 ft | 20 kts | 172° |
| 2026-04-23 08:12 | -37.67434 | 144.84103 | 372 ft | 19 kts | 171° |
| 2026-04-23 08:12 | -37.67566 | 144.84127 | 368 ft | 19 kts | 172° |
| 2026-04-23 08:13 | -37.67693 | 144.84154 | 366 ft | 18 kts | 173° |
| 2026-04-23 08:13 | -37.67756 | 144.84164 | 362 ft | 9 kts | 171° |
| 2026-04-23 08:13 | -37.67816 | 144.84180 | 360 ft | 9 kts | 167° |
| 2026-04-23 08:13 | -37.67855 | 144.84236 | 362 ft | 9 kts | 97° |
| 2026-04-23 08:14 | -37.67849 | 144.84313 | 360 ft | 9 kts | 79° |
| 2026-04-23 08:14 | -37.67838 | 144.84387 | 364 ft | 8 kts | 80° |
| 2026-04-23 08:14 | -37.67829 | 144.84460 | 363 ft | 8 kts | 82° |
| 2026-04-23 08:14 | -37.67821 | 144.84530 | 364 ft | 8 kts | 86° |
| 2026-04-23 08:15 | -37.67842 | 144.84592 | 366 ft | 8 kts | 137° |
| 2026-04-23 08:15 | -37.67894 | 144.84616 | 361 ft | 9 kts | 171° |
| 2026-04-23 08:15 | -37.67958 | 144.84628 | 358 ft | 10 kts | 169° |
| 2026-04-23 08:15 | -37.68033 | 144.84643 | 355 ft | 12 kts | 171° |
| 2026-04-23 08:16 | -37.68125 | 144.84661 | 360 ft | 15 kts | 174° |
| 2026-04-23 08:16 | -37.68232 | 144.84680 | 353 ft | 17 kts | 173° |
| 2026-04-23 08:16 | -37.68341 | 144.84705 | 349 ft | 16 kts | 156° |
| 2026-04-23 08:16 | -37.68403 | 144.84819 | 345 ft | 16 kts | 98° |
| 2026-04-23 08:17 | -37.68411 | 144.84956 | 343 ft | 16 kts | 95° |
| 2026-04-23 08:17 | -37.68419 | 144.85091 | 352 ft | 15 kts | 94° |
| 2026-04-23 08:17 | -37.68426 | 144.85218 | 345 ft | 14 kts | 94° |
| 2026-04-23 08:17 | -37.68433 | 144.85341 | 348 ft | 14 kts | 94° |
| 2026-04-23 08:18 | -37.68440 | 144.85459 | 348 ft | 14 kts | 94° |
| 2026-04-23 08:18 | -37.68448 | 144.85582 | 347 ft | 14 kts | 94° |
| 2026-04-23 08:18 | -37.68455 | 144.85704 | 343 ft | 14 kts | 94° |
| 2026-04-23 08:18 | -37.68461 | 144.85826 | 339 ft | 14 kts | 94° |
| 2026-04-23 08:19 | -37.68514 | 144.85910 | 335 ft | 10 kts | 168° |
| 2026-04-23 08:19 | -37.68554 | 144.85911 | 334 ft | 3 kts | 202° |
| 2026-04-23 08:19 | -37.68564 | 144.85890 | 337 ft | 3 kts | 252° |
| 2026-04-23 08:19 | -37.68565 | 144.85866 | 338 ft | 3 kts | 267° |
| 2026-04-23 08:20 | -37.68565 | 144.85855 | 338 ft | 0 kts | 273° |